sensor_id;sensor_type;location;lat;lon;timestamp;pressure;altitude;pressure_sealevel;temperature;humidity
60437;BME280;46289;51.992;4.498;2023-06-14T00:01:27;101701.91;;;18.85;56.21
60437;BME280;46289;51.992;4.498;2023-06-14T00:03:37;101700.56;;;18.78;56.75
60437;BME280;46289;51.992;4.498;2023-06-14T00:05:43;101709.63;;;18.74;57.00
60437;BME280;46289;51.992;4.498;2023-06-14T00:07:51;101701.84;;;18.71;57.19
60437;BME280;46289;51.992;4.498;2023-06-14T00:09:56;101709.81;;;18.71;57.37
60437;BME280;46289;51.992;4.498;2023-06-14T00:12:05;101707.34;;;18.68;57.06
60437;BME280;46289;51.992;4.498;2023-06-14T00:14:10;101708.78;;;18.59;57.90
60437;BME280;46289;51.992;4.498;2023-06-14T00:16:18;101706.19;;;18.58;57.94
60437;BME280;46289;51.992;4.498;2023-06-14T00:18:29;101706.75;;;18.49;58.35
60437;BME280;46289;51.992;4.498;2023-06-14T00:20:35;101708.38;;;18.51;58.27
60437;BME280;46289;51.992;4.498;2023-06-14T00:22:40;101704.38;;;18.44;58.77
60437;BME280;46289;51.992;4.498;2023-06-14T00:24:47;101714.06;;;18.45;58.59
60437;BME280;46289;51.992;4.498;2023-06-14T00:26:54;101709.97;;;18.39;59.19
60437;BME280;46289;51.992;4.498;2023-06-14T00:29:00;101711.84;;;18.37;59.22
60437;BME280;46289;51.992;4.498;2023-06-14T00:31:05;101710.34;;;18.33;59.31
60437;BME280;46289;51.992;4.498;2023-06-14T00:33:10;101712.22;;;18.31;59.31
60437;BME280;46289;51.992;4.498;2023-06-14T00:35:15;101714.22;;;18.28;59.72
60437;BME280;46289;51.992;4.498;2023-06-14T00:37:21;101709.34;;;18.20;60.08
60437;BME280;46289;51.992;4.498;2023-06-14T00:39:28;101711.31;;;18.16;60.61
60437;BME280;46289;51.992;4.498;2023-06-14T00:41:37;101715.00;;;18.14;60.41
60437;BME280;46289;51.992;4.498;2023-06-14T00:43:43;101711.75;;;18.09;60.86
60437;BME280;46289;51.992;4.498;2023-06-14T00:45:48;101708.25;;;18.08;61.15
60437;BME280;46289;51.992;4.498;2023-06-14T00:47:54;101719.84;;;18.07;60.74
60437;BME280;46289;51.992;4.498;2023-06-14T00:50:00;101718.41;;;18.02;61.50
60437;BME280;46289;51.992;4.498;2023-06-14T00:52:07;101716.84;;;17.97;61.78
60437;BME280;46289;51.992;4.498;2023-06-14T00:54:15;101708.19;;;17.94;61.86
60437;BME280;46289;51.992;4.498;2023-06-14T00:56:20;101710.00;;;17.93;61.96
60437;BME280;46289;51.992;4.498;2023-06-14T00:58:29;101707.41;;;17.92;61.92
60437;BME280;46289;51.992;4.498;2023-06-14T01:00:35;101713.94;;;17.86;62.02
60437;BME280;46289;51.992;4.498;2023-06-14T01:02:45;101717.66;;;17.84;62.22
60437;BME280;46289;51.992;4.498;2023-06-14T01:04:54;101708.19;;;17.78;62.47
60437;BME280;46289;51.992;4.498;2023-06-14T01:07:05;101711.94;;;17.74;62.92
60437;BME280;46289;51.992;4.498;2023-06-14T01:09:20;101704.25;;;17.69;62.86
60437;BME280;46289;51.992;4.498;2023-06-14T01:11:35;101706.03;;;17.69;63.19
60437;BME280;46289;51.992;4.498;2023-06-14T01:13:46;101707.00;;;17.68;62.79
60437;BME280;46289;51.992;4.498;2023-06-14T01:15:52;101701.25;;;17.60;62.67
60437;BME280;46289;51.992;4.498;2023-06-14T01:18:05;101704.75;;;17.60;62.74
60437;BME280;46289;51.992;4.498;2023-06-14T01:20:13;101707.59;;;17.57;62.60
60437;BME280;46289;51.992;4.498;2023-06-14T01:22:23;101715.56;;;17.57;62.91
60437;BME280;46289;51.992;4.498;2023-06-14T01:24:34;101713.16;;;17.52;62.81
60437;BME280;46289;51.992;4.498;2023-06-14T01:26:41;101704.59;;;17.47;62.65
60437;BME280;46289;51.992;4.498;2023-06-14T01:28:48;101705.78;;;17.42;63.30
60437;BME280;46289;51.992;4.498;2023-06-14T01:31:02;101709.53;;;17.38;63.15
60437;BME280;46289;51.992;4.498;2023-06-14T01:33:11;101704.50;;;17.33;63.31
60437;BME280;46289;51.992;4.498;2023-06-14T01:35:20;101706.38;;;17.31;63.00
60437;BME280;46289;51.992;4.498;2023-06-14T01:37:26;101712.91;;;17.25;63.06
60437;BME280;46289;51.992;4.498;2023-06-14T01:39:35;101709.63;;;17.20;63.37
60437;BME280;46289;51.992;4.498;2023-06-14T01:41:40;101708.00;;;17.18;63.14
60437;BME280;46289;51.992;4.498;2023-06-14T01:43:47;101710.91;;;17.13;63.32
60437;BME280;46289;51.992;4.498;2023-06-14T01:45:54;101712.25;;;17.04;63.73
60437;BME280;46289;51.992;4.498;2023-06-14T01:48:01;101708.88;;;17.01;63.40
60437;BME280;46289;51.992;4.498;2023-06-14T01:50:07;101704.03;;;16.93;62.85
60437;BME280;46289;51.992;4.498;2023-06-14T01:52:12;101705.28;;;16.86;62.96
60437;BME280;46289;51.992;4.498;2023-06-14T01:54:18;101702.97;;;16.80;63.68
60437;BME280;46289;51.992;4.498;2023-06-14T01:56:26;101706.66;;;16.76;64.17
60437;BME280;46289;51.992;4.498;2023-06-14T01:58:31;101706.84;;;16.73;64.31
60437;BME280;46289;51.992;4.498;2023-06-14T02:00:40;101698.16;;;16.69;64.15
60437;BME280;46289;51.992;4.498;2023-06-14T02:02:45;101707.13;;;16.66;63.89
60437;BME280;46289;51.992;4.498;2023-06-14T02:04:55;101701.25;;;16.61;64.59
60437;BME280;46289;51.992;4.498;2023-06-14T02:07:01;101708.47;;;16.58;64.38
60437;BME280;46289;51.992;4.498;2023-06-14T02:09:06;101709.59;;;16.54;64.22
60437;BME280;46289;51.992;4.498;2023-06-14T02:11:12;101703.50;;;16.52;64.22
60437;BME280;46289;51.992;4.498;2023-06-14T02:13:21;101707.97;;;16.51;64.31
60437;BME280;46289;51.992;4.498;2023-06-14T02:15:27;101710.66;;;16.50;64.19
60437;BME280;46289;51.992;4.498;2023-06-14T02:17:39;101712.78;;;16.43;64.39
60437;BME280;46289;51.992;4.498;2023-06-14T02:19:45;101712.94;;;16.40;63.72
60437;BME280;46289;51.992;4.498;2023-06-14T02:21:50;101716.53;;;16.39;64.44
60437;BME280;46289;51.992;4.498;2023-06-14T02:23:56;101712.16;;;16.38;63.89
60437;BME280;46289;51.992;4.498;2023-06-14T02:26:05;101718.63;;;16.32;63.83
60437;BME280;46289;51.992;4.498;2023-06-14T02:28:10;101713.31;;;16.32;63.77
60437;BME280;46289;51.992;4.498;2023-06-14T02:30:22;101712.63;;;16.29;63.84
60437;BME280;46289;51.992;4.498;2023-06-14T02:32:27;101718.09;;;16.26;63.89
60437;BME280;46289;51.992;4.498;2023-06-14T02:34:34;101713.94;;;16.20;64.05
60437;BME280;46289;51.992;4.498;2023-06-14T02:36:39;101712.84;;;16.24;63.57
60437;BME280;46289;51.992;4.498;2023-06-14T02:38:45;101720.09;;;16.20;63.75
60437;BME280;46289;51.992;4.498;2023-06-14T02:40:51;101720.28;;;16.17;64.04
60437;BME280;46289;51.992;4.498;2023-06-14T02:42:58;101714.97;;;16.17;63.61
60437;BME280;46289;51.992;4.498;2023-06-14T02:45:05;101715.13;;;16.14;63.26
60437;BME280;46289;51.992;4.498;2023-06-14T02:47:10;101715.13;;;16.14;63.42
60437;BME280;46289;51.992;4.498;2023-06-14T02:49:15;101710.66;;;16.15;63.42
60437;BME280;46289;51.992;4.498;2023-06-14T02:51:22;101721.44;;;16.12;63.38
60437;BME280;46289;51.992;4.498;2023-06-14T02:53:35;101716.19;;;16.10;63.36
60437;BME280;46289;51.992;4.498;2023-06-14T02:55:39;101720.72;;;16.08;63.41
60437;BME280;46289;51.992;4.498;2023-06-14T02:57:44;101719.94;;;16.06;63.45
60437;BME280;46289;51.992;4.498;2023-06-14T02:59:54;101719.94;;;16.06;63.14
60437;BME280;46289;51.992;4.498;2023-06-14T03:02:00;101722.50;;;16.08;63.15
60437;BME280;46289;51.992;4.498;2023-06-14T03:04:08;101725.47;;;16.01;63.04
60437;BME280;46289;51.992;4.498;2023-06-14T03:06:15;101722.72;;;16.03;63.18
60437;BME280;46289;51.992;4.498;2023-06-14T03:08:20;101725.53;;;16.00;62.86
60437;BME280;46289;51.992;4.498;2023-06-14T03:10:31;101728.19;;;16.00;62.84
60437;BME280;46289;51.992;4.498;2023-06-14T03:12:40;101728.19;;;16.00;62.91
60437;BME280;46289;51.992;4.498;2023-06-14T03:14:45;101734.50;;;15.97;62.83
60437;BME280;46289;51.992;4.498;2023-06-14T03:16:52;101734.59;;;15.96;63.60
60437;BME280;46289;51.992;4.498;2023-06-14T03:18:59;101734.72;;;15.93;62.98
60437;BME280;46289;51.992;4.498;2023-06-14T03:21:07;101741.81;;;15.92;63.25
60437;BME280;46289;51.992;4.498;2023-06-14T03:23:22;101745.41;;;15.91;63.13
60437;BME280;46289;51.992;4.498;2023-06-14T03:25:28;101747.13;;;15.92;63.33
60437;BME280;46289;51.992;4.498;2023-06-14T03:27:37;101746.41;;;15.89;63.33
60437;BME280;46289;51.992;4.498;2023-06-14T03:29:44;101750.78;;;15.90;63.48
60437;BME280;46289;51.992;4.498;2023-06-14T03:31:59;101754.28;;;15.90;63.44
60437;BME280;46289;51.992;4.498;2023-06-14T03:34:04;101751.78;;;15.87;63.51
60437;BME280;46289;51.992;4.498;2023-06-14T03:36:12;101761.69;;;15.84;63.56
60437;BME280;46289;51.992;4.498;2023-06-14T03:38:21;101756.53;;;15.80;63.36
60437;BME280;46289;51.992;4.498;2023-06-14T03:40:29;101753.72;;;15.84;63.27
60437;BME280;46289;51.992;4.498;2023-06-14T03:42:34;101757.31;;;15.83;63.22
60437;BME280;46289;51.992;4.498;2023-06-14T03:44:39;101767.69;;;15.87;63.48
60437;BME280;46289;51.992;4.498;2023-06-14T03:46:45;101759.81;;;15.86;63.37
60437;BME280;46289;51.992;4.498;2023-06-14T03:48:53;101765.91;;;15.88;63.05
60437;BME280;46289;51.992;4.498;2023-06-14T03:50:59;101763.31;;;15.86;63.10
60437;BME280;46289;51.992;4.498;2023-06-14T03:53:06;101768.56;;;15.88;63.51
60437;BME280;46289;51.992;4.498;2023-06-14T03:55:12;101770.34;;;15.87;63.26
60437;BME280;46289;51.992;4.498;2023-06-14T03:57:21;101764.19;;;15.87;63.62
60437;BME280;46289;51.992;4.498;2023-06-14T03:59:27;101763.31;;;15.86;63.45
60437;BME280;46289;51.992;4.498;2023-06-14T04:01:35;101772.97;;;15.87;63.54
60437;BME280;46289;51.992;4.498;2023-06-14T04:03:47;101762.47;;;15.86;63.29
60437;BME280;46289;51.992;4.498;2023-06-14T04:05:52;101764.75;;;15.93;63.32
60437;BME280;46289;51.992;4.498;2023-06-14T04:07:59;101776.13;;;15.95;62.77
60437;BME280;46289;51.992;4.498;2023-06-14T04:10:07;101769.06;;;15.96;62.85
60437;BME280;46289;51.992;4.498;2023-06-14T04:12:15;101769.75;;;15.99;62.78
60437;BME280;46289;51.992;4.498;2023-06-14T04:14:20;101787.59;;;15.96;62.89
60437;BME280;46289;51.992;4.498;2023-06-14T04:16:26;101781.22;;;16.00;62.70
60437;BME280;46289;51.992;4.498;2023-06-14T04:18:31;101785.66;;;15.99;62.87
60437;BME280;46289;51.992;4.498;2023-06-14T04:20:36;101774.91;;;16.02;62.28
60437;BME280;46289;51.992;4.498;2023-06-14T04:22:43;101783.81;;;16.01;62.51
60437;BME280;46289;51.992;4.498;2023-06-14T04:24:48;101784.44;;;16.07;62.21
60437;BME280;46289;51.992;4.498;2023-06-14T04:27:08;101787.78;;;16.10;62.02
60437;BME280;46289;51.992;4.498;2023-06-14T04:29:16;101779.69;;;16.13;61.70
60437;BME280;46289;51.992;4.498;2023-06-14T04:31:21;101777.38;;;16.24;61.47
60437;BME280;46289;51.992;4.498;2023-06-14T04:33:29;101787.59;;;16.32;60.70
60437;BME280;46289;51.992;4.498;2023-06-14T04:35:35;101782.84;;;16.39;60.53
60437;BME280;46289;51.992;4.498;2023-06-14T04:37:41;101787.84;;;16.45;60.54
60437;BME280;46289;51.992;4.498;2023-06-14T04:39:47;101784.91;;;16.51;60.30
60437;BME280;46289;51.992;4.498;2023-06-14T04:41:53;101790.34;;;16.65;59.81
60437;BME280;46289;51.992;4.498;2023-06-14T04:44:02;101789.97;;;16.73;59.51
60437;BME280;46289;51.992;4.498;2023-06-14T04:46:08;101783.28;;;16.83;58.95
60437;BME280;46289;51.992;4.498;2023-06-14T04:48:20;101791.53;;;16.95;58.56
60437;BME280;46289;51.992;4.498;2023-06-14T04:50:27;101781.47;;;17.01;58.54
60437;BME280;46289;51.992;4.498;2023-06-14T04:52:34;101782.28;;;17.19;58.43
60437;BME280;46289;51.992;4.498;2023-06-14T04:54:40;101777.25;;;17.30;57.75
60437;BME280;46289;51.992;4.498;2023-06-14T04:56:45;101785.69;;;17.39;57.25
60437;BME280;46289;51.992;4.498;2023-06-14T04:58:50;101787.56;;;17.52;56.75
60437;BME280;46289;51.992;4.498;2023-06-14T05:00:59;101792.91;;;17.68;56.43
60437;BME280;46289;51.992;4.498;2023-06-14T05:03:05;101781.72;;;17.79;56.41
60437;BME280;46289;51.992;4.498;2023-06-14T05:05:10;101790.03;;;17.89;55.67
60437;BME280;46289;51.992;4.498;2023-06-14T05:07:18;101788.31;;;18.04;55.59
60437;BME280;46289;51.992;4.498;2023-06-14T05:09:25;101781.78;;;18.25;55.33
60437;BME280;46289;51.992;4.498;2023-06-14T05:11:30;101796.06;;;18.38;54.85
60437;BME280;46289;51.992;4.498;2023-06-14T05:13:35;101798.19;;;18.48;54.15
60437;BME280;46289;51.992;4.498;2023-06-14T05:15:42;101787.81;;;18.73;53.65
60437;BME280;46289;51.992;4.498;2023-06-14T05:17:50;101793.13;;;18.73;53.31
60437;BME280;46289;51.992;4.498;2023-06-14T05:19:57;101792.25;;;18.89;53.20
60437;BME280;46289;51.992;4.498;2023-06-14T05:22:03;101792.75;;;19.10;52.12
60437;BME280;46289;51.992;4.498;2023-06-14T05:24:08;101801.22;;;19.16;52.00
60437;BME280;46289;51.992;4.498;2023-06-14T05:26:15;101799.72;;;19.12;51.67
60437;BME280;46289;51.992;4.498;2023-06-14T05:28:22;101798.94;;;19.24;51.33
60437;BME280;46289;51.992;4.498;2023-06-14T05:30:31;101807.28;;;19.61;50.87
60437;BME280;46289;51.992;4.498;2023-06-14T05:32:37;101800.66;;;19.83;50.16
60437;BME280;46289;51.992;4.498;2023-06-14T05:34:46;101803.69;;;19.77;49.33
60437;BME280;46289;51.992;4.498;2023-06-14T05:36:52;101804.31;;;19.94;49.24
60437;BME280;46289;51.992;4.498;2023-06-14T05:39:00;101802.88;;;20.03;49.47
60437;BME280;46289;51.992;4.498;2023-06-14T05:41:06;101805.34;;;20.33;48.54
60437;BME280;46289;51.992;4.498;2023-06-14T05:43:11;101803.88;;;20.42;46.91
60437;BME280;46289;51.992;4.498;2023-06-14T05:45:17;101805.13;;;20.36;46.79
60437;BME280;46289;51.992;4.498;2023-06-14T05:47:25;101808.63;;;20.51;46.92
60437;BME280;46289;51.992;4.498;2023-06-14T05:49:31;101811.31;;;20.64;46.17
60437;BME280;46289;51.992;4.498;2023-06-14T05:51:38;101806.78;;;20.92;45.85
60437;BME280;46289;51.992;4.498;2023-06-14T05:53:44;101811.78;;;21.22;44.90
60437;BME280;46289;51.992;4.498;2023-06-14T05:55:52;101821.09;;;21.03;45.58
60437;BME280;46289;51.992;4.498;2023-06-14T05:58:00;101818.34;;;21.05;45.00
60437;BME280;46289;51.992;4.498;2023-06-14T06:00:07;101814.09;;;21.41;43.74
60437;BME280;46289;51.992;4.498;2023-06-14T06:02:17;101813.03;;;21.43;43.80
60437;BME280;46289;51.992;4.498;2023-06-14T06:04:24;101808.28;;;21.60;43.95
60437;BME280;46289;51.992;4.498;2023-06-14T06:06:30;101811.25;;;21.68;43.32
60437;BME280;46289;51.992;4.498;2023-06-14T06:08:37;101813.19;;;21.66;43.19
60437;BME280;46289;51.992;4.498;2023-06-14T06:10:43;101807.56;;;21.82;42.88
60437;BME280;46289;51.992;4.498;2023-06-14T06:12:48;101810.44;;;21.91;42.77
60437;BME280;46289;51.992;4.498;2023-06-14T06:14:54;101810.16;;;22.07;42.35
60437;BME280;46289;51.992;4.498;2023-06-14T06:16:59;101813.09;;;22.04;42.29
60437;BME280;46289;51.992;4.498;2023-06-14T06:19:04;101818.81;;;22.11;41.74
60437;BME280;46289;51.992;4.498;2023-06-14T06:21:09;101820.09;;;21.81;42.49
60437;BME280;46289;51.992;4.498;2023-06-14T06:23:15;101821.81;;;22.06;41.56
60437;BME280;46289;51.992;4.498;2023-06-14T06:25:26;101816.69;;;22.40;41.65
60437;BME280;46289;51.992;4.498;2023-06-14T06:27:33;101826.59;;;22.27;41.77
60437;BME280;46289;51.992;4.498;2023-06-14T06:29:42;101818.81;;;22.59;41.07
60437;BME280;46289;51.992;4.498;2023-06-14T06:31:53;101817.88;;;22.60;40.30
60437;BME280;46289;51.992;4.498;2023-06-14T06:33:58;101825.22;;;22.45;40.41
60437;BME280;46289;51.992;4.498;2023-06-14T06:36:04;101820.06;;;22.66;40.87
60437;BME280;46289;51.992;4.498;2023-06-14T06:38:10;101817.56;;;22.87;40.51
60437;BME280;46289;51.992;4.498;2023-06-14T06:40:16;101829.41;;;22.96;39.99
60437;BME280;46289;51.992;4.498;2023-06-14T06:42:24;101830.81;;;23.02;39.98
60437;BME280;46289;51.992;4.498;2023-06-14T06:44:29;101834.34;;;23.02;40.09
60437;BME280;46289;51.992;4.498;2023-06-14T06:46:34;101830.69;;;22.68;40.10
60437;BME280;46289;51.992;4.498;2023-06-14T06:48:43;101836.69;;;22.83;40.00
60437;BME280;46289;51.992;4.498;2023-06-14T06:50:48;101839.72;;;23.13;39.05
60437;BME280;46289;51.992;4.498;2023-06-14T06:52:53;101835.34;;;23.12;39.03
60437;BME280;46289;51.992;4.498;2023-06-14T06:54:58;101833.16;;;23.51;39.29
60437;BME280;46289;51.992;4.498;2023-06-14T06:57:04;101840.59;;;23.70;38.91
60437;BME280;46289;51.992;4.498;2023-06-14T06:59:12;101840.00;;;23.55;38.37
60437;BME280;46289;51.992;4.498;2023-06-14T07:01:18;101842.41;;;23.70;38.57
60437;BME280;46289;51.992;4.498;2023-06-14T07:03:24;101854.00;;;23.48;38.25
60437;BME280;46289;51.992;4.498;2023-06-14T07:05:29;101851.56;;;23.44;38.00
60437;BME280;46289;51.992;4.498;2023-06-14T07:07:34;101856.69;;;23.59;37.55
60437;BME280;46289;51.992;4.498;2023-06-14T07:09:40;101865.97;;;23.66;37.70
60437;BME280;46289;51.992;4.498;2023-06-14T07:11:46;101863.19;;;23.79;37.62
60437;BME280;46289;51.992;4.498;2023-06-14T07:13:52;101864.03;;;24.02;36.75
60437;BME280;46289;51.992;4.498;2023-06-14T07:16:00;101858.31;;;23.84;37.00
60437;BME280;46289;51.992;4.498;2023-06-14T07:18:06;101864.03;;;23.68;37.40
60437;BME280;46289;51.992;4.498;2023-06-14T07:20:14;101858.41;;;23.49;37.82
60437;BME280;46289;51.992;4.498;2023-06-14T07:22:19;101854.88;;;23.71;37.72
60437;BME280;46289;51.992;4.498;2023-06-14T07:24:30;101865.38;;;23.74;37.75
60437;BME280;46289;51.992;4.498;2023-06-14T07:26:40;101866.47;;;23.94;37.76
60437;BME280;46289;51.992;4.498;2023-06-14T07:28:46;101859.84;;;24.20;37.41
60437;BME280;46289;51.992;4.498;2023-06-14T07:30:53;101862.53;;;24.09;36.88
60437;BME280;46289;51.992;4.498;2023-06-14T07:33:01;101861.16;;;24.26;36.74
60437;BME280;46289;51.992;4.498;2023-06-14T07:35:07;101859.41;;;24.47;36.61
60437;BME280;46289;51.992;4.498;2023-06-14T07:37:15;101868.41;;;24.58;36.27
60437;BME280;46289;51.992;4.498;2023-06-14T07:39:21;101859.38;;;24.80;36.09
60437;BME280;46289;51.992;4.498;2023-06-14T07:41:26;101859.44;;;24.68;35.54
60437;BME280;46289;51.992;4.498;2023-06-14T07:43:31;101869.63;;;24.53;35.99
60437;BME280;46289;51.992;4.498;2023-06-14T07:45:37;101864.75;;;24.80;35.63
60437;BME280;46289;51.992;4.498;2023-06-14T07:47:55;101870.94;;;24.70;36.17
60437;BME280;46289;51.992;4.498;2023-06-14T07:50:03;101874.47;;;24.92;35.61
60437;BME280;46289;51.992;4.498;2023-06-14T07:52:08;101882.78;;;24.68;35.07
60437;BME280;46289;51.992;4.498;2023-06-14T07:54:15;101881.00;;;25.31;34.89
60437;BME280;46289;51.992;4.498;2023-06-14T07:56:22;101882.81;;;25.10;34.46
60437;BME280;46289;51.992;4.498;2023-06-14T07:58:28;101877.13;;;25.24;34.69
60437;BME280;46289;51.992;4.498;2023-06-14T08:00:33;101878.38;;;25.20;34.66
60437;BME280;46289;51.992;4.498;2023-06-14T08:02:38;101877.66;;;25.49;34.40
60437;BME280;46289;51.992;4.498;2023-06-14T08:04:44;101875.53;;;25.43;34.33
60437;BME280;46289;51.992;4.498;2023-06-14T08:06:56;101883.69;;;25.31;34.08
60437;BME280;46289;51.992;4.498;2023-06-14T08:09:01;101881.00;;;25.31;34.38
60437;BME280;46289;51.992;4.498;2023-06-14T08:11:06;101877.03;;;25.66;33.62
60437;BME280;46289;51.992;4.498;2023-06-14T08:13:11;101882.78;;;26.33;33.61
60437;BME280;46289;51.992;4.498;2023-06-14T08:15:19;101886.75;;;26.19;33.18
60437;BME280;46289;51.992;4.498;2023-06-14T08:17:24;101884.34;;;26.35;32.96
60437;BME280;46289;51.992;4.498;2023-06-14T08:19:29;101878.81;;;26.17;33.49
60437;BME280;46289;51.992;4.498;2023-06-14T08:21:35;101882.88;;;26.02;33.88
60437;BME280;46289;51.992;4.498;2023-06-14T08:23:43;101885.41;;;26.03;32.84
60437;BME280;46289;51.992;4.498;2023-06-14T08:25:49;101886.72;;;26.09;32.93
60437;BME280;46289;51.992;4.498;2023-06-14T08:27:58;101885.38;;;26.44;32.51
60437;BME280;46289;51.992;4.498;2023-06-14T08:30:04;101889.94;;;26.63;31.89
60437;BME280;46289;51.992;4.498;2023-06-14T08:32:10;101893.25;;;26.16;33.02
60437;BME280;46289;51.992;4.498;2023-06-14T08:34:18;101892.50;;;26.64;32.50
60437;BME280;46289;51.992;4.498;2023-06-14T08:36:23;101891.72;;;26.43;32.54
60437;BME280;46289;51.992;4.498;2023-06-14T08:38:31;101886.97;;;26.66;31.38
60437;BME280;46289;51.992;4.498;2023-06-14T08:40:50;101885.97;;;26.67;31.14
60437;BME280;46289;51.992;4.498;2023-06-14T08:42:58;101886.63;;;26.40;31.40
60437;BME280;46289;51.992;4.498;2023-06-14T08:45:04;101883.94;;;26.49;32.14
60437;BME280;46289;51.992;4.498;2023-06-14T08:47:10;101881.13;;;26.41;31.40
60437;BME280;46289;51.992;4.498;2023-06-14T08:49:22;101896.19;;;26.83;31.68
60437;BME280;46289;51.992;4.498;2023-06-14T08:51:28;101889.59;;;27.14;31.70
60437;BME280;46289;51.992;4.498;2023-06-14T08:53:40;101889.78;;;27.23;31.29
60437;BME280;46289;51.992;4.498;2023-06-14T08:55:48;101891.31;;;27.15;31.05
60437;BME280;46289;51.992;4.498;2023-06-14T08:57:57;101894.75;;;26.69;31.62
60437;BME280;46289;51.992;4.498;2023-06-14T09:00:03;101887.81;;;26.66;30.30
60437;BME280;46289;51.992;4.498;2023-06-14T09:02:17;101887.63;;;27.17;30.04
60437;BME280;46289;51.992;4.498;2023-06-14T09:04:24;101889.84;;;27.50;30.18
60437;BME280;46289;51.992;4.498;2023-06-14T09:06:31;101902.91;;;27.45;29.77
60437;BME280;46289;51.992;4.498;2023-06-14T09:08:40;101893.31;;;27.13;30.10
60437;BME280;46289;51.992;4.498;2023-06-14T09:10:48;101893.06;;;27.07;30.53
60437;BME280;46289;51.992;4.498;2023-06-14T09:12:53;101889.66;;;26.95;29.97
60437;BME280;46289;51.992;4.498;2023-06-14T09:14:58;101895.59;;;26.99;30.74
60437;BME280;46289;51.992;4.498;2023-06-14T09:17:07;101880.97;;;27.11;30.90
60437;BME280;46289;51.992;4.498;2023-06-14T09:19:14;101882.28;;;27.54;30.46
60437;BME280;46289;51.992;4.498;2023-06-14T09:21:25;101890.56;;;27.80;29.18
60437;BME280;46289;51.992;4.498;2023-06-14T09:23:33;101884.78;;;28.02;27.89
60437;BME280;46289;51.992;4.498;2023-06-14T09:25:48;101892.84;;;27.75;29.13
60437;BME280;46289;51.992;4.498;2023-06-14T09:27:53;101894.75;;;27.65;29.39
60437;BME280;46289;51.992;4.498;2023-06-14T09:30:00;101897.75;;;27.99;28.91
60437;BME280;46289;51.992;4.498;2023-06-14T09:32:07;101895.47;;;28.22;29.10
60437;BME280;46289;51.992;4.498;2023-06-14T09:34:13;101900.25;;;27.83;28.78
60437;BME280;46289;51.992;4.498;2023-06-14T09:36:25;101890.13;;;27.47;28.88
60437;BME280;46289;51.992;4.498;2023-06-14T09:38:31;101898.56;;;27.72;27.92
60437;BME280;46289;51.992;4.498;2023-06-14T09:40:38;101903.13;;;27.71;28.42
60437;BME280;46289;51.992;4.498;2023-06-14T09:42:46;101902.81;;;27.74;28.23
60437;BME280;46289;51.992;4.498;2023-06-14T09:44:53;101911.84;;;27.55;27.77
60437;BME280;46289;51.992;4.498;2023-06-14T09:46:59;101908.06;;;27.76;27.63
60437;BME280;46289;51.992;4.498;2023-06-14T09:49:05;101906.75;;;27.90;28.08
60437;BME280;46289;51.992;4.498;2023-06-14T09:51:13;101913.19;;;28.07;27.46
60437;BME280;46289;51.992;4.498;2023-06-14T09:53:23;101901.25;;;28.09;27.75
60437;BME280;46289;51.992;4.498;2023-06-14T09:55:32;101910.66;;;28.05;27.87
60437;BME280;46289;51.992;4.498;2023-06-14T09:57:41;101904.59;;;28.21;27.70
60437;BME280;46289;51.992;4.498;2023-06-14T09:59:55;101904.81;;;27.82;27.06
60437;BME280;46289;51.992;4.498;2023-06-14T10:02:07;101904.06;;;27.90;27.43
60437;BME280;46289;51.992;4.498;2023-06-14T10:04:24;101916.72;;;27.89;26.62
60437;BME280;46289;51.992;4.498;2023-06-14T10:06:30;101909.47;;;27.80;27.05
60437;BME280;46289;51.992;4.498;2023-06-14T10:08:36;101902.81;;;27.84;27.38
60437;BME280;46289;51.992;4.498;2023-06-14T10:10:43;101900.44;;;28.27;26.10
60437;BME280;46289;51.992;4.498;2023-06-14T10:12:51;101907.75;;;28.44;27.12
60437;BME280;46289;51.992;4.498;2023-06-14T10:15:03;101901.16;;;28.82;24.96
60437;BME280;46289;51.992;4.498;2023-06-14T10:17:12;101899.00;;;29.30;24.93
60437;BME280;46289;51.992;4.498;2023-06-14T10:19:25;101897.22;;;28.77;25.11
60437;BME280;46289;51.992;4.498;2023-06-14T10:21:51;101901.56;;;28.70;25.00
60437;BME280;46289;51.992;4.498;2023-06-14T10:24:05;101898.50;;;28.47;25.14
60437;BME280;46289;51.992;4.498;2023-06-14T10:26:19;101899.13;;;28.31;25.76
60437;BME280;46289;51.992;4.498;2023-06-14T10:28:30;101894.88;;;27.73;25.93
60437;BME280;46289;51.992;4.498;2023-06-14T10:30:38;101902.69;;;27.76;25.83
60437;BME280;46289;51.992;4.498;2023-06-14T10:33:03;101894.72;;;28.30;24.49
60437;BME280;46289;51.992;4.498;2023-06-14T10:35:09;101895.47;;;28.22;24.12
60437;BME280;46289;51.992;4.498;2023-06-14T10:37:21;101896.03;;;28.26;24.54
60437;BME280;46289;51.992;4.498;2023-06-14T10:39:26;101892.59;;;28.51;24.45
60437;BME280;46289;51.992;4.498;2023-06-14T10:41:35;101894.66;;;28.75;23.94
60437;BME280;46289;51.992;4.498;2023-06-14T10:43:40;101901.34;;;28.45;24.55
60437;BME280;46289;51.992;4.498;2023-06-14T10:46:16;101900.09;;;28.57;24.10
60437;BME280;46289;51.992;4.498;2023-06-14T10:48:29;101902.25;;;28.89;24.90
60437;BME280;46289;51.992;4.498;2023-06-14T10:50:38;101907.66;;;28.89;23.89
60437;BME280;46289;51.992;4.498;2023-06-14T10:52:47;101902.44;;;28.52;23.78
60437;BME280;46289;51.992;4.498;2023-06-14T10:54:59;101895.78;;;28.47;24.69
60437;BME280;46289;51.992;4.498;2023-06-14T10:57:06;101907.06;;;29.04;23.99
60437;BME280;46289;51.992;4.498;2023-06-14T10:59:14;101905.59;;;29.27;23.39
60437;BME280;46289;51.992;4.498;2023-06-14T11:01:31;101903.16;;;29.42;24.15
60437;BME280;46289;51.992;4.498;2023-06-14T11:03:50;101902.72;;;28.85;24.27
60437;BME280;46289;51.992;4.498;2023-06-14T11:05:59;101895.66;;;28.92;24.27
60437;BME280;46289;51.992;4.498;2023-06-14T11:08:18;101885.66;;;29.28;24.49